Time;durP1;ratioP1;P1;durP2;ratioP2;P2;SDS_P1;SDS_P2;PMS_P1;PMS_P2;Temp;Humidity;BMP_temperature;BMP_pressure;BME280_temperature;BME280_humidity;BME280_pressure;Samples;Min_cycle;Max_cycle;Signal;HPM_P1;HPM_P2
2021/01/05 00:00:12;;;;;;;30.48;13.48;;;;;;;9.54;85.45;100111.06;5052864;28;20059;-76
2021/01/05 00:02:38;;;;;;;34.40;14.63;;;;;;;9.45;86.23;100103.59;5054351;28;20025;-76
2021/01/05 00:05:04;;;;;;;38.88;16.33;;;;;;;9.37;87.11;100109.94;5054282;28;20033;-76
2021/01/05 00:07:30;;;;;;;33.22;16.73;;;;;;;9.31;87.61;100111.59;5053892;28;20029;-76
2021/01/05 00:09:55;;;;;;;31.77;17.55;;;;;;;9.29;87.70;100096.94;5036624;28;20028;-76
2021/01/05 00:12:21;;;;;;;38.35;19.13;;;;;;;9.20;88.39;100098.19;5036625;28;20021;-76
2021/01/05 00:14:47;;;;;;;37.03;19.85;;;;;;;9.15;88.89;100098.84;5049069;28;20014;-76
2021/01/05 00:17:15;;;;;;;33.00;17.10;;;;;;;9.14;88.86;100082.16;5033224;28;20025;-76
2021/01/05 00:19:40;;;;;;;40.53;19.88;;;;;;;9.09;89.35;100092.56;5016727;28;20021;-76
2021/01/05 00:22:05;;;;;;;39.45;18.90;;;;;;;9.06;89.81;100094.81;5016667;28;20029;-75
2021/01/05 00:24:33;;;;;;;45.63;19.92;;;;;;;9.03;90.10;100096.03;5032493;28;20476;-76
2021/01/05 00:26:58;;;;;;;36.13;18.92;;;;;;;9.06;89.55;100100.94;5036354;28;20521;-75
2021/01/05 00:29:24;;;;;;;42.42;19.45;;;;;;;9.02;90.33;100107.69;5053611;28;20017;-76
2021/01/05 00:31:49;;;;;;;37.05;19.27;;;;;;;9.06;89.79;100111.53;5036312;28;20028;-75
2021/01/05 00:34:15;;;;;;;39.33;18.88;;;;;;;9.02;90.36;100125.41;5052811;28;20021;-76
2021/01/05 00:36:41;;;;;;;40.33;21.08;;;;;;;8.97;90.71;100118.06;5036207;28;20382;-76
2021/01/05 00:39:07;;;;;;;44.97;20.05;;;;;;;8.89;91.45;100123.59;5036127;28;20016;-76
2021/01/05 00:41:33;;;;;;;36.55;19.25;;;;;;;8.83;92.02;100129.72;5051164;28;20033;-75
2021/01/05 00:43:59;;;;;;;41.78;20.63;;;;;;;8.78;92.60;100127.72;5052077;28;20067;-76
2021/01/05 00:46:24;;;;;;;41.20;20.10;;;;;;;8.78;92.49;100129.56;5036112;28;20060;-77
2021/01/05 00:48:49;;;;;;;40.58;22.30;;;;;;;8.79;92.34;100128.53;5036027;28;20029;-75
2021/01/05 00:51:15;;;;;;;41.65;20.63;;;;;;;8.76;92.87;100123.66;5035762;28;20088;-76
2021/01/05 00:53:42;;;;;;;43.83;22.90;;;;;;;8.74;92.62;100126.50;5032452;28;20029;-76
2021/01/05 00:56:07;;;;;;;40.47;19.52;;;;;;;8.78;92.17;100121.63;5016095;28;20082;-76
2021/01/05 00:58:33;;;;;;;44.08;20.33;;;;;;;8.76;91.97;100115.72;5040644;28;20044;-76
2021/01/05 01:00:59;;;;;;;34.38;18.42;;;;;;;8.91;90.60;100127.66;5035335;28;20476;-75
2021/01/05 01:03:25;;;;;;;31.00;17.52;;;;;;;9.10;88.91;100125.97;5052337;28;20021;-76
2021/01/05 01:05:50;;;;;;;31.83;17.13;;;;;;;9.17;88.43;100124.13;5035758;28;20025;-76
2021/01/05 01:08:18;;;;;;;30.50;15.68;;;;;;;9.20;88.39;100145.91;5043793;28;20492;-76
2021/01/05 01:10:43;;;;;;;31.85;15.63;;;;;;;9.36;87.66;100143.59;5052200;28;20028;-75
2021/01/05 01:13:10;;;;;;;29.60;14.63;;;;;;;9.46;87.21;100150.25;5052248;28;20036;-75
2021/01/05 01:15:36;;;;;;;28.15;15.25;;;;;;;9.51;87.07;100156.56;5052130;28;20445;-75
2021/01/05 01:18:03;;;;;;;30.63;16.10;;;;;;;9.55;86.97;100171.00;5045669;28;20110;-75
2021/01/05 01:20:30;;;;;;;29.00;15.77;;;;;;;9.48;87.36;100180.03;5035443;28;20028;-76
2021/01/05 01:22:55;;;;;;;22.75;13.02;;;;;;;9.57;87.32;100171.63;5035517;28;20458;-75
2021/01/05 01:25:21;;;;;;;22.90;13.20;;;;;;;9.58;87.26;100165.28;5052156;28;20039;-75
2021/01/05 01:27:46;;;;;;;28.90;15.00;;;;;;;9.49;87.99;100157.78;5036460;28;20040;-75
2021/01/05 01:30:13;;;;;;;27.30;14.23;;;;;;;9.49;87.74;100158.59;5035577;28;20033;-75
2021/01/05 01:32:38;;;;;;;26.73;14.25;;;;;;;9.50;87.96;100148.81;5035417;28;20025;-76
2021/01/05 01:35:05;;;;;;;25.42;13.63;;;;;;;9.47;88.36;100155.38;5035173;28;20032;-75
2021/01/05 01:37:31;;;;;;;25.73;13.15;;;;;;;9.43;88.70;100156.78;5035116;28;20029;-76
2021/01/05 01:39:56;;;;;;;26.92;13.82;;;;;;;9.43;88.79;100148.03;5035038;28;20098;-75
2021/01/05 01:42:22;;;;;;;22.52;12.98;;;;;;;9.39;89.28;100155.59;5035047;28;20466;-76
2021/01/05 01:44:48;;;;;;;23.48;14.98;;;;;;;9.39;89.35;100153.75;5034455;28;20017;-76
2021/01/05 01:47:28;;;;;;;26.10;13.05;;;;;;;9.34;89.83;100158.06;5036940;28;20021;-75
2021/01/05 01:49:58;;;;;;;27.02;13.80;;;;;;;9.26;90.51;100148.53;5034194;28;20378;-75
2021/01/05 01:52:45;;;;;;;24.80;13.02;;;;;;;9.24;90.64;100141.81;5035254;28;20381;-75
2021/01/05 01:55:40;;;;;;;23.55;13.20;;;;;;;9.20;91.12;100135.28;5035447;28;20025;-75
2021/01/05 01:58:35;;;;;;;28.02;13.75;;;;;;;9.13;91.63;100144.09;4998147;28;20059;-76
2021/01/05 02:01:28;;;;;;;26.92;13.70;;;;;;;9.08;92.20;100148.41;5015264;28;20071;-75
2021/01/05 02:04:22;;;;;;;27.10;13.25;;;;;;;9.03;92.49;100148.22;5031575;28;20470;-75
2021/01/05 02:07:09;;;;;;;23.92;13.73;;;;;;;9.04;92.54;100148.00;5019747;28;20139;-75
2021/01/05 02:09:44;;;;;;;25.50;14.25;;;;;;;9.05;92.50;100152.28;5051286;28;20079;-75
2021/01/05 02:12:28;;;;;;;27.00;13.50;;;;;;;9.01;92.48;100152.91;5056320;28;20490;-76
2021/01/05 02:15:47;;;;;;;27.88;14.05;;;;;;;8.97;93.16;100167.59;5056572;28;20535;-75
2021/01/05 02:18:37;;;;;;;25.35;13.95;;;;;;;8.92;93.31;100152.31;4970981;28;20031;-74
2021/01/05 02:21:23;;;;;;;27.85;13.52;;;;;;;8.86;93.79;100148.66;5036345;28;20041;-75
2021/01/05 02:24:04;;;;;;;34.17;15.13;;;;;;;8.81;94.16;100145.84;5037115;28;20385;-74
2021/01/05 02:26:38;;;;;;;31.93;14.70;;;;;;;8.77;94.63;100147.25;5055979;28;20136;-75
2021/01/05 02:29:09;;;;;;;29.10;12.65;;;;;;;8.73;94.98;100145.25;5055083;28;20485;-75
2021/01/05 02:31:53;;;;;;;29.23;13.90;;;;;;;8.70;94.93;100143.81;5055842;28;20025;-75
2021/01/05 02:34:24;;;;;;;27.02;12.32;;;;;;;8.70;94.88;100142.00;5038639;28;20044;-76
2021/01/05 02:37:14;;;;;;;29.38;12.60;;;;;;;8.67;95.14;100152.19;5042889;28;20078;-76
2021/01/05 02:39:40;;;;;;;24.85;12.50;;;;;;;8.65;95.09;100155.06;5031878;28;20390;-76
2021/01/05 02:42:33;;;;;;;26.02;11.55;;;;;;;8.65;94.97;100152.41;5056836;28;20040;-76
2021/01/05 02:45:16;;;;;;;25.35;12.77;;;;;;;8.62;95.33;100146.69;5018259;28;20045;-76
2021/01/05 02:48:17;;;;;;;21.15;12.00;;;;;;;8.65;94.90;100151.56;5047870;28;20027;-76
2021/01/05 02:51:21;;;;;;;19.35;11.25;;;;;;;8.70;94.41;100151.78;5013834;28;20033;-76
2021/01/05 02:53:46;;;;;;;24.35;10.48;;;;;;;8.60;95.07;100138.97;4975191;28;20495;-74
2021/01/05 02:56:56;;;;;;;23.90;11.05;;;;;;;8.53;95.46;100140.78;5022929;28;20096;-74
2021/01/05 02:59:21;;;;;;;22.13;10.57;;;;;;;8.53;95.43;100143.44;5018138;28;20037;-74
2021/01/05 03:02:29;;;;;;;21.25;11.63;;;;;;;8.49;95.28;100148.34;5032103;28;20477;-76
2021/01/05 03:04:54;;;;;;;21.40;10.82;;;;;;;8.40;95.91;100162.81;5043653;28;20025;-76
2021/01/05 03:07:27;;;;;;;26.10;11.38;;;;;;;8.39;95.92;100163.03;5035543;28;20052;-76
2021/01/05 03:10:18;;;;;;;23.65;10.48;;;;;;;8.43;95.51;100162.41;5032281;28;20267;-76
2021/01/05 03:12:56;;;;;;;23.77;11.18;;;;;;;8.39;95.58;100163.03;5054926;28;20100;-75
2021/01/05 03:15:45;;;;;;;23.75;12.00;;;;;;;8.40;95.54;100168.09;5054400;28;20029;-75
2021/01/05 03:18:33;;;;;;;25.88;11.07;;;;;;;8.32;95.90;100178.03;5043247;28;20064;-74
2021/01/05 03:21:08;;;;;;;21.23;9.23;;;;;;;8.13;97.03;100182.31;5041652;28;20057;-75
2021/01/05 03:23:34;;;;;;;18.17;9.05;;;;;;;8.15;97.38;100180.28;5030910;28;20036;-75
2021/01/05 03:26:04;;;;;;;15.85;8.48;;;;;;;8.24;96.74;100194.94;5045201;28;20051;-75
2021/01/05 03:28:31;;;;;;;18.00;9.27;;;;;;;8.28;96.58;100201.44;5037459;28;20516;-75
2021/01/05 03:31:25;;;;;;;26.13;10.63;;;;;;;8.11;97.54;100213.44;5045132;28;20045;-75
2021/01/05 03:33:58;;;;;;;20.85;8.02;;;;;;;8.45;96.89;100220.44;5040185;28;20071;-76
2021/01/05 03:36:24;;;;;;;19.65;8.05;;;;;;;8.38;95.92;100217.78;5042987;28;20493;-76
2021/01/05 03:38:49;;;;;;;18.35;9.40;;;;;;;7.80;98.29;100226.19;5053182;28;20055;-76
2021/01/05 03:41:15;;;;;;;21.25;7.68;;;;;;;7.89;97.56;100224.19;5044337;28;20033;-75
2021/01/05 03:43:40;;;;;;;20.05;11.93;;;;;;;7.99;97.65;100224.63;5044491;28;20029;-75
2021/01/05 03:46:05;;;;;;;20.63;9.48;;;;;;;7.82;99.30;100222.56;5044783;28;20024;-74
2021/01/05 03:48:31;;;;;;;27.70;10.82;;;;;;;7.32;100.00;100223.59;5044760;28;20025;-75
2021/01/05 03:50:56;;;;;;;25.45;11.85;;;;;;;7.07;100.00;100230.38;5044617;28;20017;-76
2021/01/05 03:53:22;;;;;;;23.35;13.90;;;;;;;7.01;100.00;100244.34;5037445;28;20036;-76
2021/01/05 03:55:47;;;;;;;29.75;15.35;;;;;;;6.93;100.00;100241.84;5044305;28;20063;-75
2021/01/05 03:58:12;;;;;;;28.60;15.57;;;;;;;6.58;100.00;100250.56;5038909;28;20471;-75
2021/01/05 04:00:38;;;;;;;31.85;16.25;;;;;;;6.76;100.00;100251.91;5038142;28;20094;-76
2021/01/05 04:03:03;;;;;;;30.08;16.90;;;;;;;6.59;100.00;100260.09;5038698;28;20025;-75
2021/01/05 04:05:30;;;;;;;28.58;17.08;;;;;;;6.44;100.00;100259.34;5052126;28;20480;-76
2021/01/05 04:07:56;;;;;;;32.70;15.93;;;;;;;6.80;100.00;100261.06;5038318;28;20119;-76
2021/01/05 04:10:22;;;;;;;34.08;18.25;;;;;;;6.61;100.00;100275.75;5038602;28;20167;-76
2021/01/05 04:12:47;;;;;;;34.63;18.42;;;;;;;6.29;100.00;100277.88;5035880;28;20025;-76
2021/01/05 04:15:23;;;;;;;33.95;18.63;;;;;;;6.34;100.00;100274.69;5022986;28;20049;-75
2021/01/05 04:17:50;;;;;;;36.75;18.77;;;;;;;6.33;100.00;100271.25;5041887;28;20021;-76
2021/01/05 04:20:15;;;;;;;38.53;18.92;;;;;;;6.26;100.00;100277.44;5046301;28;20092;-75
2021/01/05 04:22:40;;;;;;;33.47;15.55;;;;;;;6.11;100.00;100280.97;5044209;28;20420;-76
2021/01/05 04:25:07;;;;;;;32.85;18.38;;;;;;;6.13;100.00;100293.97;5040370;28;20025;-75
2021/01/05 04:27:32;;;;;;;32.40;16.48;;;;;;;6.12;100.00;100305.53;5042048;28;20021;-76
2021/01/05 04:29:58;;;;;;;30.83;17.15;;;;;;;6.16;100.00;100304.13;5040689;28;20028;-75
2021/01/05 04:32:23;;;;;;;36.80;19.67;;;;;;;5.94;100.00;100308.56;5044454;28;20067;-76
2021/01/05 04:34:49;;;;;;;40.35;20.80;;;;;;;5.93;100.00;100315.66;5043499;28;20115;-76
2021/01/05 04:37:14;;;;;;;37.20;19.65;;;;;;;5.97;100.00;100321.38;5052900;28;20136;-76
2021/01/05 04:39:39;;;;;;;38.25;19.15;;;;;;;6.08;100.00;100327.97;5047308;28;20101;-75
2021/01/05 04:42:18;;;;;;;41.97;21.20;;;;;;;5.89;100.00;100330.16;5045452;28;20472;-75
2021/01/05 04:44:55;;;;;;;38.10;21.88;;;;;;;5.90;100.00;100345.00;5031877;28;20170;-76
2021/01/05 04:47:40;;;;;;;41.65;20.92;;;;;;;5.88;100.00;100356.72;5042747;28;20028;-75
2021/01/05 04:50:21;;;;;;;37.05;20.17;;;;;;;5.95;100.00;100355.00;5036989;28;20029;-74
2021/01/05 04:52:55;;;;;;;38.38;20.65;;;;;;;5.85;100.00;100349.19;5048768;28;20020;-76
2021/01/05 04:55:43;;;;;;;41.58;20.80;;;;;;;5.96;100.00;100360.09;5052778;28;20024;-75
2021/01/05 04:58:29;;;;;;;45.40;21.50;;;;;;;5.88;100.00;100359.34;5049726;28;20052;-74
2021/01/05 05:00:55;;;;;;;30.63;17.27;;;;;;;5.80;100.00;100370.00;5040255;28;20037;-75
2021/01/05 05:03:51;;;;;;;32.72;17.90;;;;;;;5.79;100.00;100368.38;5051822;28;20087;-74
2021/01/05 05:06:22;;;;;;;30.80;16.30;;;;;;;5.84;100.00;100374.72;5052544;28;20068;-76
2021/01/05 05:09:02;;;;;;;28.63;15.35;;;;;;;5.84;100.00;100387.06;5042985;28;20029;-76
2021/01/05 05:11:39;;;;;;;29.80;14.98;;;;;;;5.79;100.00;100384.19;5051833;28;20098;-74
2021/01/05 05:14:14;;;;;;;30.33;16.40;;;;;;;5.73;100.00;100388.34;5043612;28;20343;-75
2021/01/05 05:16:45;;;;;;;31.65;16.90;;;;;;;5.83;100.00;100388.06;5041725;28;20029;-75
2021/01/05 05:19:28;;;;;;;34.13;18.65;;;;;;;5.85;100.00;100394.81;5052463;28;20035;-76
2021/01/05 05:22:12;;;;;;;29.23;16.88;;;;;;;5.85;100.00;100405.34;5042920;28;20108;-75
2021/01/05 05:24:51;;;;;;;29.75;16.42;;;;;;;5.78;100.00;100407.09;5036500;28;20033;-76
2021/01/05 05:27:26;;;;;;;26.50;14.85;;;;;;;5.78;100.00;100416.78;5052037;28;20024;-75
2021/01/05 05:30:05;;;;;;;30.05;16.17;;;;;;;5.82;100.00;100416.25;5034905;28;20024;-74
2021/01/05 05:32:45;;;;;;;24.48;14.43;;;;;;;5.83;100.00;100425.78;5050674;28;20021;-76
2021/01/05 05:35:35;;;;;;;25.50;13.73;;;;;;;5.84;100.00;100422.19;5033568;28;20120;-76
2021/01/05 05:38:04;;;;;;;25.67;13.13;;;;;;;5.86;100.00;100428.06;5032326;28;20025;-75
2021/01/05 05:40:52;;;;;;;23.98;13.13;;;;;;;5.89;100.00;100426.88;5050843;28;20367;-76
2021/01/05 05:43:36;;;;;;;22.05;11.07;;;;;;;5.83;100.00;100440.78;5051213;28;20113;-75
2021/01/05 05:46:14;;;;;;;20.70;10.57;;;;;;;5.87;100.00;100442.06;5034069;28;20032;-75
2021/01/05 05:48:54;;;;;;;16.13;8.45;;;;;;;6.07;100.00;100440.53;5038870;28;20048;-75
2021/01/05 05:51:30;;;;;;;15.18;8.23;;;;;;;5.94;100.00;100443.00;5038639;28;20120;-75
2021/01/05 05:54:12;;;;;;;17.27;9.00;;;;;;;5.95;100.00;100445.44;5038674;28;20029;-74
2021/01/05 05:57:09;;;;;;;12.25;8.65;;;;;;;5.97;100.00;100445.28;5039284;28;20053;-75
2021/01/05 05:59:34;;;;;;;12.45;6.30;;;;;;;6.10;100.00;100450.72;5048365;28;20043;-76
2021/01/05 06:01:59;;;;;;;12.63;6.57;;;;;;;6.06;100.00;100456.56;5040230;28;20466;-75
2021/01/05 06:04:25;;;;;;;8.50;5.88;;;;;;;6.00;100.00;100455.47;5055492;28;20489;-76
2021/01/05 06:06:50;;;;;;;11.93;6.18;;;;;;;6.04;100.00;100462.00;5042780;28;20025;-75
2021/01/05 06:09:16;;;;;;;8.00;6.25;;;;;;;6.08;100.00;100470.34;5038690;28;20034;-75
2021/01/05 06:11:51;;;;;;;10.65;6.32;;;;;;;6.08;100.00;100465.09;5038877;28;20385;-74
2021/01/05 06:14:16;;;;;;;6.75;4.22;;;;;;;6.15;100.00;100466.81;5039881;28;20461;-75
2021/01/05 06:16:42;;;;;;;6.30;3.90;;;;;;;6.11;100.00;100475.25;5055544;28;20090;-75
2021/01/05 06:19:07;;;;;;;5.35;3.42;;;;;;;6.12;100.00;100483.00;5055230;28;20031;-76
2021/01/05 06:21:33;;;;;;;6.85;4.13;;;;;;;6.11;100.00;100481.38;5038817;28;20120;-76
2021/01/05 06:23:58;;;;;;;6.03;3.40;;;;;;;6.31;100.00;100478.19;5055378;28;20021;-75
2021/01/05 06:26:23;;;;;;;3.63;2.83;;;;;;;6.77;100.00;100491.09;5055069;28;20177;-75
2021/01/05 06:28:49;;;;;;;5.25;2.67;;;;;;;6.31;100.00;100494.81;5039185;28;20377;-75
2021/01/05 06:31:14;;;;;;;6.28;2.92;;;;;;;6.20;100.00;100492.63;5039082;28;20057;-75
2021/01/05 06:33:40;;;;;;;4.30;2.30;;;;;;;6.18;100.00;100497.28;5036042;28;20108;-74
2021/01/05 06:36:06;;;;;;;3.00;2.50;;;;;;;6.20;100.00;100497.91;5038674;28;20054;-75
2021/01/05 06:38:32;;;;;;;3.75;2.20;;;;;;;6.21;100.00;100504.03;5038597;28;20033;-75
2021/01/05 06:40:57;;;;;;;3.05;2.38;;;;;;;6.22;100.00;100508.28;5039269;28;20128;-75
2021/01/05 06:43:23;;;;;;;3.55;2.60;;;;;;;6.52;100.00;100504.63;5043463;28;20537;-75
2021/01/05 06:45:48;;;;;;;3.80;2.17;;;;;;;6.29;100.00;100514.47;5039168;28;20029;-75
2021/01/05 06:48:14;;;;;;;4.25;2.50;;;;;;;6.45;100.00;100518.75;5054611;28;20108;-75
2021/01/05 06:50:39;;;;;;;3.75;3.30;;;;;;;6.23;100.00;100516.00;5041074;28;20033;-75
2021/01/05 06:53:05;;;;;;;5.72;3.47;;;;;;;6.27;100.00;100525.22;5017256;28;20033;-75
2021/01/05 06:55:30;;;;;;;5.75;3.38;;;;;;;6.31;100.00;100529.09;5028530;28;20029;-75
2021/01/05 06:57:56;;;;;;;4.32;3.55;;;;;;;6.31;100.00;100537.03;5040503;28;20128;-76
2021/01/05 07:00:24;;;;;;;3.67;2.40;;;;;;;6.51;100.00;100533.84;5041373;28;20033;-75
2021/01/05 07:02:50;;;;;;;3.22;2.10;;;;;;;6.46;100.00;100536.22;5055281;28;20028;-74
2021/01/05 07:05:16;;;;;;;2.60;2.17;;;;;;;6.48;100.00;100534.22;5039248;28;20036;-75
2021/01/05 07:07:42;;;;;;;4.03;2.25;;;;;;;6.45;100.00;100530.13;5044511;28;20028;-77
2021/01/05 07:10:08;;;;;;;2.88;2.30;;;;;;;6.52;100.00;100531.00;5039071;28;20108;-76
2021/01/05 07:12:35;;;;;;;2.75;2.03;;;;;;;6.42;100.00;100535.75;5054690;28;20021;-75
2021/01/05 07:15:00;;;;;;;4.35;3.05;;;;;;;6.41;100.00;100540.22;5046056;28;20016;-74
2021/01/05 07:17:26;;;;;;;4.40;2.75;;;;;;;6.39;100.00;100544.03;5045408;28;20020;-75
2021/01/05 07:19:51;;;;;;;5.82;4.07;;;;;;;6.40;100.00;100549.13;5052019;28;20101;-76
2021/01/05 07:22:17;;;;;;;5.53;3.72;;;;;;;6.32;100.00;100551.84;5052614;28;20178;-75
2021/01/05 07:24:42;;;;;;;7.85;5.30;;;;;;;6.27;100.00;100546.31;5049744;28;20021;-76
2021/01/05 07:27:07;;;;;;;13.05;7.55;;;;;;;6.32;100.00;100551.03;5040103;28;20461;-75
2021/01/05 07:29:33;;;;;;;11.60;7.50;;;;;;;6.24;100.00;100548.50;5039676;28;20178;-75
2021/01/05 07:31:58;;;;;;;6.88;3.97;;;;;;;6.23;100.00;100560.03;5038183;28;20039;-75
2021/01/05 07:34:23;;;;;;;6.60;4.22;;;;;;;6.25;100.00;100553.56;5043856;28;20441;-75
2021/01/05 07:36:55;;;;;;;4.75;3.03;;;;;;;6.30;100.00;100563.59;5043276;28;20468;-75
2021/01/05 07:39:28;;;;;;;4.07;3.10;;;;;;;6.24;100.00;100565.13;5054234;28;20067;-75
2021/01/05 07:42:21;;;;;;;6.32;3.08;;;;;;;6.80;100.00;100554.91;5040864;28;20272;-77
2021/01/05 07:44:48;;;;;;;4.63;3.53;;;;;;;6.48;100.00;100561.41;5037559;28;20021;-77
2021/01/05 07:47:16;;;;;;;4.68;3.25;;;;;;;6.34;100.00;100555.13;5061478;28;20032;-76
2021/01/05 07:49:42;;;;;;;5.55;3.63;;;;;;;6.41;100.00;100560.47;5063409;28;20100;-77
2021/01/05 07:52:38;;;;;;;3.75;2.92;;;;;;;6.43;100.00;100564.59;5049439;28;20484;-77
2021/01/05 07:55:24;;;;;;;3.15;2.30;;;;;;;6.53;100.00;100558.22;5037596;28;20039;-76
2021/01/05 07:57:51;;;;;;;3.40;3.10;;;;;;;6.55;100.00;100567.59;5035926;28;20053;-77
2021/01/05 08:00:26;;;;;;;3.88;3.47;;;;;;;6.84;100.00;100571.22;5052870;28;20036;-77
2021/01/05 08:02:53;;;;;;;3.95;2.65;;;;;;;7.11;100.00;100562.59;5048237;28;20028;-78
2021/01/05 08:05:21;;;;;;;2.28;1.55;;;;;;;6.88;100.00;100570.63;5051787;28;20044;-78
2021/01/05 08:07:46;;;;;;;2.67;1.83;;;;;;;7.04;100.00;100572.22;5034135;28;20029;-78
2021/01/05 08:10:22;;;;;;;1.45;1.33;;;;;;;7.05;100.00;100580.97;5039889;28;20025;-78
2021/01/05 08:12:48;;;;;;;2.53;1.48;;;;;;;7.05;100.00;100578.31;5047507;28;20025;-78
2021/01/05 08:15:16;;;;;;;1.88;0.93;;;;;;;7.05;100.00;100579.16;5044244;28;20386;-78
2021/01/05 08:17:41;;;;;;;1.80;1.35;;;;;;;7.07;100.00;100585.06;5038767;28;20036;-78
2021/01/05 08:20:07;;;;;;;2.33;1.10;;;;;;;7.14;100.00;100579.88;5042988;28;20062;-77
2021/01/05 08:22:32;;;;;;;0.98;0.90;;;;;;;7.04;100.00;100587.25;5035992;28;20056;-77
2021/01/05 08:24:57;;;;;;;4.28;2.00;;;;;;;7.03;100.00;100583.81;5033018;28;20470;-78
2021/01/05 08:27:23;;;;;;;1.63;1.45;;;;;;;7.15;100.00;100585.97;5052391;28;20112;-78
2021/01/05 08:29:48;;;;;;;23.27;10.20;;;;;;;7.18;100.00;100583.78;5041363;28;20025;-77
2021/01/05 08:32:14;;;;;;;3.13;1.98;;;;;;;7.15;100.00;100593.91;5049025;28;20033;-78
2021/01/05 08:34:39;;;;;;;4.82;3.13;;;;;;;7.19;100.00;100580.13;5046008;28;20025;-77
2021/01/05 08:37:04;;;;;;;5.30;3.30;;;;;;;7.17;100.00;100590.06;5035182;28;20037;-78
2021/01/05 08:39:30;;;;;;;4.32;2.13;;;;;;;7.24;100.00;100588.31;5038219;28;20032;-78
2021/01/05 08:41:56;;;;;;;8.05;4.82;;;;;;;7.26;100.00;100594.25;5036106;28;20454;-78
2021/01/05 08:44:22;;;;;;;9.20;3.95;;;;;;;7.23;100.00;100599.06;5040842;28;20529;-78
2021/01/05 08:46:48;;;;;;;12.25;6.60;;;;;;;7.34;100.00;100595.94;5033972;28;20064;-78
2021/01/05 08:49:13;;;;;;;7.80;3.65;;;;;;;7.34;100.00;100595.94;5051502;28;20071;-78
2021/01/05 08:51:39;;;;;;;6.78;4.00;;;;;;;7.41;100.00;100601.28;5036474;28;20057;-78
2021/01/05 08:54:05;;;;;;;5.72;3.90;;;;;;;7.49;100.00;100604.63;5033439;28;20024;-78
2021/01/05 08:56:30;;;;;;;5.15;3.10;;;;;;;7.57;100.00;100601.03;5057053;28;20037;-78
2021/01/05 08:58:56;;;;;;;8.23;4.60;;;;;;;7.77;100.00;100599.38;5034311;28;20488;-78
2021/01/05 09:01:23;;;;;;;4.03;2.85;;;;;;;7.82;100.00;100605.94;5033618;28;20513;-78
2021/01/05 09:03:48;;;;;;;7.10;3.65;;;;;;;7.87;100.00;100599.06;5055908;28;20102;-78
2021/01/05 09:06:20;;;;;;;4.97;3.55;;;;;;;8.01;100.00;100606.09;5032938;28;20514;-78
2021/01/05 09:08:46;;;;;;;3.10;2.15;;;;;;;7.86;100.00;100602.72;5034633;28;20029;-78
2021/01/05 09:11:27;;;;;;;3.20;2.20;;;;;;;7.95;100.00;100606.03;5035233;28;20474;-78
2021/01/05 09:13:53;;;;;;;5.13;3.22;;;;;;;7.94;100.00;100607.06;5013187;28;20029;-78
2021/01/05 09:16:24;;;;;;;2.80;2.28;;;;;;;8.06;100.00;100602.06;5029100;28;20029;-78
2021/01/05 09:18:51;;;;;;;7.15;2.63;;;;;;;8.01;100.00;100608.72;5050590;28;20044;-78
2021/01/05 09:21:18;;;;;;;3.63;2.33;;;;;;;8.03;100.00;100608.56;5042852;28;20040;-77
2021/01/05 09:23:43;;;;;;;3.58;2.40;;;;;;;7.96;100.00;100605.88;5042315;28;20021;-77
2021/01/05 09:26:20;;;;;;;3.70;2.75;;;;;;;8.00;100.00;100606.28;5040166;28;20523;-77
2021/01/05 09:28:46;;;;;;;5.05;2.20;;;;;;;8.09;100.00;100606.97;5028994;28;20186;-78
2021/01/05 09:31:12;;;;;;;3.75;2.58;;;;;;;7.98;98.88;100598.53;5051418;28;20112;-77
2021/01/05 09:33:37;;;;;;;4.20;2.45;;;;;;;8.30;96.81;100601.63;5045000;28;20036;-78
2021/01/05 09:36:03;;;;;;;3.95;2.90;;;;;;;8.31;96.33;100608.53;5040555;28;20047;-77
2021/01/05 09:38:28;;;;;;;3.67;2.42;;;;;;;8.25;96.20;100604.84;5031361;28;20561;-77
2021/01/05 09:40:54;;;;;;;4.63;2.45;;;;;;;8.67;94.33;100594.34;5041157;28;20021;-77
2021/01/05 09:43:19;;;;;;;4.18;1.77;;;;;;;8.70;93.64;100607.19;5044624;28;20119;-77
2021/01/05 09:45:45;;;;;;;3.75;2.17;;;;;;;9.31;92.07;100609.03;5043058;28;20100;-77
2021/01/05 09:48:16;;;;;;;2.33;1.83;;;;;;;9.59;89.68;100604.44;5042051;28;20108;-77
2021/01/05 09:50:44;;;;;;;3.40;1.95;;;;;;;9.70;87.27;100615.44;5048606;28;20032;-77
2021/01/05 09:53:10;;;;;;;3.72;1.83;;;;;;;9.47;89.16;100611.34;5043247;28;20028;-78
2021/01/05 09:55:37;;;;;;;4.05;1.80;;;;;;;9.63;88.64;100620.75;5050069;28;20029;-77
2021/01/05 09:58:02;;;;;;;2.85;1.80;;;;;;;9.40;87.90;100611.31;5037144;28;20037;-77
2021/01/05 10:00:28;;;;;;;3.95;1.48;;;;;;;9.53;87.97;100607.88;5041986;28;20111;-77
2021/01/05 10:02:53;;;;;;;4.30;2.05;;;;;;;9.77;87.02;100622.41;5049522;28;20032;-78
2021/01/05 10:05:19;;;;;;;2.55;1.73;;;;;;;9.23;88.12;100619.81;5050398;28;20036;-78
2021/01/05 10:07:46;;;;;;;2.83;2.20;;;;;;;9.07;89.91;100619.16;5051850;28;20040;-78
2021/01/05 10:10:18;;;;;;;2.20;1.80;;;;;;;9.32;88.48;100621.28;5051702;28;20501;-78
2021/01/05 10:12:44;;;;;;;2.40;1.73;;;;;;;8.94;89.65;100619.13;5040383;28;20032;-78
2021/01/05 10:15:10;;;;;;;2.75;1.80;;;;;;;9.01;90.17;100616.47;5042510;28;20021;-78
2021/01/05 10:17:36;;;;;;;2.83;1.45;;;;;;;9.11;90.12;100625.72;5052034;28;20083;-78
2021/01/05 10:20:04;;;;;;;3.00;1.85;;;;;;;9.14;89.80;100622.66;5051683;28;20071;-78
2021/01/05 10:22:30;;;;;;;3.05;1.60;;;;;;;9.09;91.36;100611.84;5034554;28;20112;-78
2021/01/05 10:24:56;;;;;;;2.80;1.90;;;;;;;9.66;88.38;100614.22;5051888;28;20096;-77
2021/01/05 10:27:22;;;;;;;2.00;1.50;;;;;;;9.63;88.91;100613.59;5044142;28;20017;-78
2021/01/05 10:29:47;;;;;;;1.92;1.45;;;;;;;10.05;87.10;100616.06;5051164;28;20472;-79
2021/01/05 10:32:13;;;;;;;2.20;1.42;;;;;;;9.75;87.46;100618.31;5037314;28;20016;-78
2021/01/05 10:34:38;;;;;;;3.92;1.95;;;;;;;10.24;87.00;100617.09;5044594;28;20017;-78
2021/01/05 10:37:05;;;;;;;3.05;1.80;;;;;;;10.03;88.18;100610.97;5048299;28;20032;-78
2021/01/05 10:39:30;;;;;;;2.28;1.83;;;;;;;10.59;85.00;100607.06;5047476;28;20060;-77
2021/01/05 10:41:56;;;;;;;2.40;1.30;;;;;;;11.14;78.60;100619.94;5038979;28;20056;-78
2021/01/05 10:44:22;;;;;;;1.77;1.35;;;;;;;11.18;78.43;100618.47;5054747;28;20051;-78
2021/01/05 10:46:48;;;;;;;2.38;1.75;;;;;;;11.32;78.94;100622.69;5049555;28;20040;-78
2021/01/05 10:49:14;;;;;;;1.90;1.20;;;;;;;12.00;76.52;100606.06;5055126;28;20016;-78
2021/01/05 10:52:00;;;;;;;3.15;1.63;;;;;;;10.96;79.17;100616.13;5059215;28;20028;-78
2021/01/05 10:54:27;;;;;;;3.40;1.40;;;;;;;11.33;77.44;100607.56;5048178;28;20025;-78
2021/01/05 10:57:02;;;;;;;1.45;1.35;;;;;;;11.44;75.01;100610.34;5054850;28;20120;-78
2021/01/05 10:59:28;;;;;;;3.67;1.98;;;;;;;11.33;75.12;100604.91;5040570;28;20090;-78
2021/01/05 11:01:58;;;;;;;2.72;1.98;;;;;;;10.54;79.19;100601.53;5046024;28;20029;-77
2021/01/05 11:04:24;;;;;;;5.65;1.70;;;;;;;10.70;79.64;100598.41;5054689;28;20021;-76
2021/01/05 11:07:01;;;;;;;3.95;2.75;;;;;;;10.38;79.28;100604.63;5049827;28;20021;-77
2021/01/05 11:09:27;;;;;;;2.80;1.90;;;;;;;10.38;80.96;100621.38;5049111;28;20025;-77
2021/01/05 11:12:02;;;;;;;2.60;1.48;;;;;;;10.26;81.48;100618.53;5043015;28;20025;-77
2021/01/05 11:14:28;;;;;;;2.63;1.42;;;;;;;10.26;81.45;100607.94;5046218;28;20405;-77
2021/01/05 11:16:54;;;;;;;3.42;2.00;;;;;;;10.20;79.55;100610.56;5037541;28;20094;-77
2021/01/05 11:19:20;;;;;;;2.80;1.58;;;;;;;10.18;80.13;100610.75;5049693;28;20058;-76
2021/01/05 11:22:13;;;;;;;1.77;1.30;;;;;;;10.53;79.11;100616.66;5045188;28;20037;-77
2021/01/05 11:24:39;;;;;;;2.22;0.77;;;;;;;10.50;78.04;100622.38;5041624;28;20402;-77
2021/01/05 11:27:06;;;;;;;1.80;1.00;;;;;;;10.42;78.58;100614.63;5044870;28;20524;-76
2021/01/05 11:29:32;;;;;;;1.85;0.82;;;;;;;10.82;76.22;100605.75;5041330;28;20025;-76
2021/01/05 11:32:17;;;;;;;1.23;0.85;;;;;;;10.73;76.59;100613.94;5054501;28;20025;-77
2021/01/05 11:34:43;;;;;;;0.95;0.47;;;;;;;11.31;70.35;100612.25;5053440;28;20032;-78